This is the latest recevied weather packets stored in our database for station/object KJ4HF. If no packets are shown the sender has not sent any weather packets the latest 10 day(s).
| Time | Temp. | Humidity | Pressure | Rain* | Wind** | Luminosity | Snow |
|---|---|---|---|---|---|---|---|
| 1777929644 | 25.56° C | 27% | 1013.6 hPa | 0 mm | - | 533 W/m² | - |
| 1777929349 | 26.11° C | 30% | 1013.6 hPa | 0 mm | - | 555 W/m² | - |
| 1777928143 | 25.56° C | 29% | 1013.6 hPa | 0 mm | - | 619 W/m² | - |
| 1777926343 | 26.11° C | 29% | 1014 hPa | 0 mm | - | 710 W/m² | - |
| 1777925143 | 25.56° C | 28% | 1014.1 hPa | 0 mm | - | 768 W/m² | - |
| 1777922744 | 25.56° C | 29% | 1014.6 hPa | 0 mm | - | 863 W/m² | - |
| 1777921844 | 25° C | 31% | 1015 hPa | 0 mm | - | 893 W/m² | - |
| 1777921547 | 25° C | 33% | 1015.1 hPa | 0 mm | - | 900 W/m² | - |
| 1777920353 | 24.44° C | 33% | 1015.2 hPa | 0 mm | - | 944 W/m² | - |
| 1777919142 | 25° C | 35% | 1015.4 hPa | 0 mm | - | 963 W/m² | - |
| 1777918242 | 24.44° C | 33% | 1015.5 hPa | 0 mm | - | 972 W/m² | - |
| 1777917040 | 23.89° C | 36% | 1015.4 hPa | 0 mm | - | 986 W/m² | - |
| 1777915850 | 24.44° C | 34% | 1015.6 hPa | 0 mm | - | 990 W/m² | - |
| 1777915545 | 23.89° C | 34% | 1015.8 hPa | 0 mm | - | 991 W/m² | - |
| 1777913443 | 22.78° C | 35% | 1016.2 hPa | 0 mm | - | 984 W/m² | - |
| 1777911043 | 23.33° C | 36% | 1017.3 hPa | 0 mm | - | 956 W/m² | - |
| 1777908660 | 22.22° C | 36% | 1017.5 hPa | 0 mm | - | 886 W/m² | - |
| 1777906855 | 21.11° C | 41% | 1017.5 hPa | 0 mm | - | 828 W/m² | - |
| 1777905956 | 19.44° C | 45% | 1017.5 hPa | 0 mm | - | 788 W/m² | - |
| 1777904744 | 18.33° C | 48% | 1017.4 hPa | 0 mm | - | 737 W/m² | - |
| 1777901741 | 15.56° C | 63% | 1017.3 hPa | 0 mm | - | 591 W/m² | - |
| 1777898450 | 12.22° C | 76% | 1017.4 hPa | 0 mm | - | 392 W/m² | - |
| 1777896640 | 7.78° C | 89% | 1017.1 hPa | 0 mm | - | 149 W/m² | - |
| 1777896340 | 7.78° C | 89% | 1017.1 hPa | 0 mm | - | 250 W/m² | - |
| 1777895156 | 6.11° C | 90% | 1017 hPa | 0 mm | - | 44 W/m² | - |
* Rain latest hour (hover to see other rain measurements)
** Current wind speed in m/s (hover to see current wind gust speed)